Últimos artigos:
Acender um LED com a tensão da rede eléctrica
Programação do Yaesu FT-60 para os EasySats
AO-91 (RadFxSat Fox-1B) está no Ar!
CT7AFR DIY CW-Keyer
Shutdown button for the Raspberry Pi
Simple C code to dump I2C device memory
Últimas fotos:
Últimos METARs:
LPAZ 162200Z 06003KT 9999 FEW020 19/14 Q10...
LPFR 162200Z 32009KT CAVOK 22/14 Q1013=
LPHR 162000Z 25005KT 9999 FEW017 23/17 Q10...
LPLA 162000Z /////KT 9999 FEW025 23/18 Q10...
LPMA 162200Z 02011KT 310V050 9999 FEW015 2...
LPPD 162200Z 01003KT 9999 FEW025 19/15 Q10...
LPPR 162200Z 18004KT CAVOK 17/16 Q1014=
LPPS 162200Z 03011KT 350V060 9999 SCT015 2...
LPPT 162200Z 33012KT 260V360 9999 OVC011 1...
Últimos QSOs:
2019/05/26-18:36 6m UT4XU (NIKOLAY)
2019/05/26-18:27 6m DM2HW (JOHANNES)
2019/05/26-18:22 6m CT3MD (JOSE)
2019/05/26-18:16 6m OK1VRV (RICHTR)
2019/05/26-18:07 6m SP9CVY (JERZY)
2019/05/26-18:06 6m SP9TDA (SEBASTIAN)
  UTC
Rpi-6 CPU Temp: 39.5 °C (162231Z)
IN51oq 2239Z /////KT //// 28/16 Q1013=
41732